sensor_id;sensor_type;location;lat;lon;timestamp;P1;durP1;ratioP1;P2;durP2;ratioP2
38224;SDS011;24025;48.138;11.428;2022-12-18T14:21:29;29.23;;;11.38;;
38224;SDS011;24025;48.138;11.428;2022-12-18T14:24:21;34.08;;;11.13;;
38224;SDS011;24025;48.138;11.428;2022-12-18T14:26:52;25.48;;;11.05;;
38224;SDS011;24025;48.138;11.428;2022-12-18T14:32:06;25.33;;;10.82;;
38224;SDS011;24025;48.138;11.428;2022-12-18T14:34:39;31.02;;;11.27;;
38224;SDS011;24025;48.138;11.428;2022-12-18T14:37:10;23.63;;;11.10;;
38224;SDS011;24025;48.138;11.428;2022-12-18T14:39:51;27.92;;;10.43;;
38224;SDS011;24025;48.138;11.428;2022-12-18T14:42:24;28.95;;;11.45;;
38224;SDS011;24025;48.138;11.428;2022-12-18T14:48:11;27.00;;;10.90;;
38224;SDS011;24025;48.138;11.428;2022-12-18T14:50:53;27.85;;;10.07;;
38224;SDS011;24025;48.138;11.428;2022-12-18T14:53:36;28.50;;;11.23;;
38224;SDS011;24025;48.138;11.428;2022-12-18T14:56:17;34.45;;;11.95;;
38224;SDS011;24025;48.138;11.428;2022-12-18T14:58:51;25.85;;;11.50;;
38224;SDS011;24025;48.138;11.428;2022-12-18T15:01:29;26.77;;;11.27;;
38224;SDS011;24025;48.138;11.428;2022-12-18T15:04:02;25.10;;;10.95;;
38224;SDS011;24025;48.138;11.428;2022-12-18T15:06:37;28.63;;;11.45;;
38224;SDS011;24025;48.138;11.428;2022-12-18T15:09:21;28.45;;;11.38;;
38224;SDS011;24025;48.138;11.428;2022-12-18T15:11:59;25.85;;;10.18;;
38224;SDS011;24025;48.138;11.428;2022-12-18T15:14:32;27.98;;;11.05;;
38224;SDS011;24025;48.138;11.428;2022-12-18T15:17:05;36.63;;;14.02;;
38224;SDS011;24025;48.138;11.428;2022-12-18T15:19:46;34.70;;;12.82;;
38224;SDS011;24025;48.138;11.428;2022-12-18T15:22:22;32.50;;;13.43;;
38224;SDS011;24025;48.138;11.428;2022-12-18T15:24:56;29.90;;;11.55;;
38224;SDS011;24025;48.138;11.428;2022-12-18T15:27:31;30.65;;;11.60;;
38224;SDS011;24025;48.138;11.428;2022-12-18T15:32:41;24.45;;;10.77;;
38224;SDS011;24025;48.138;11.428;2022-12-18T15:37:51;26.35;;;10.80;;
38224;SDS011;24025;48.138;11.428;2022-12-18T15:40:22;27.40;;;12.15;;
38224;SDS011;24025;48.138;11.428;2022-12-18T15:42:53;35.25;;;12.98;;
38224;SDS011;24025;48.138;11.428;2022-12-18T15:45:43;34.50;;;13.88;;
38224;SDS011;24025;48.138;11.428;2022-12-18T15:48:21;32.90;;;12.68;;
38224;SDS011;24025;48.138;11.428;2022-12-18T15:50:52;34.88;;;13.10;;
38224;SDS011;24025;48.138;11.428;2022-12-18T15:53:30;42.83;;;15.55;;
38224;SDS011;24025;48.138;11.428;2022-12-18T15:56:07;40.72;;;14.20;;
38224;SDS011;24025;48.138;11.428;2022-12-18T15:58:59;36.55;;;13.77;;
38224;SDS011;24025;48.138;11.428;2022-12-18T16:01:30;32.60;;;12.40;;
38224;SDS011;24025;48.138;11.428;2022-12-18T16:04:01;36.95;;;13.43;;
38224;SDS011;24025;48.138;11.428;2022-12-18T16:06:31;31.67;;;13.18;;
38224;SDS011;24025;48.138;11.428;2022-12-18T16:09:02;36.35;;;13.98;;
38224;SDS011;24025;48.138;11.428;2022-12-18T16:11:33;41.30;;;16.20;;
38224;SDS011;24025;48.138;11.428;2022-12-18T16:14:18;33.80;;;13.85;;
38224;SDS011;24025;48.138;11.428;2022-12-18T16:16:51;35.47;;;13.85;;
38224;SDS011;24025;48.138;11.428;2022-12-18T16:19:27;38.92;;;13.10;;
38224;SDS011;24025;48.138;11.428;2022-12-18T16:21:58;32.60;;;14.05;;
38224;SDS011;24025;48.138;11.428;2022-12-18T16:24:30;31.95;;;13.05;;
38224;SDS011;24025;48.138;11.428;2022-12-18T16:27:02;35.53;;;13.85;;
38224;SDS011;24025;48.138;11.428;2022-12-18T16:29:33;29.02;;;13.18;;
38224;SDS011;24025;48.138;11.428;2022-12-18T16:32:05;34.05;;;12.05;;
38224;SDS011;24025;48.138;11.428;2022-12-18T16:34:35;34.70;;;14.63;;
38224;SDS011;24025;48.138;11.428;2022-12-18T16:37:06;33.95;;;13.15;;
38224;SDS011;24025;48.138;11.428;2022-12-18T16:39:38;31.67;;;12.57;;
38224;SDS011;24025;48.138;11.428;2022-12-18T16:44:48;27.02;;;11.63;;
38224;SDS011;24025;48.138;11.428;2022-12-18T16:47:19;31.05;;;11.48;;
38224;SDS011;24025;48.138;11.428;2022-12-18T16:49:49;31.98;;;11.23;;
38224;SDS011;24025;48.138;11.428;2022-12-18T16:52:21;29.67;;;12.27;;
38224;SDS011;24025;48.138;11.428;2022-12-18T16:54:52;32.05;;;12.88;;
38224;SDS011;24025;48.138;11.428;2022-12-18T16:57:22;31.13;;;13.02;;
38224;SDS011;24025;48.138;11.428;2022-12-18T16:59:53;33.65;;;12.80;;
38224;SDS011;24025;48.138;11.428;2022-12-18T17:02:24;31.83;;;12.60;;
38224;SDS011;24025;48.138;11.428;2022-12-18T17:04:56;28.00;;;12.88;;
38224;SDS011;24025;48.138;11.428;2022-12-18T17:07:27;39.55;;;14.15;;
38224;SDS011;24025;48.138;11.428;2022-12-18T17:09:57;37.92;;;13.73;;
38224;SDS011;24025;48.138;11.428;2022-12-18T17:12:28;30.50;;;13.50;;
38224;SDS011;24025;48.138;11.428;2022-12-18T17:14:58;37.08;;;13.15;;
38224;SDS011;24025;48.138;11.428;2022-12-18T17:17:29;35.15;;;13.63;;
38224;SDS011;24025;48.138;11.428;2022-12-18T17:19:59;31.35;;;11.93;;
38224;SDS011;24025;48.138;11.428;2022-12-18T17:22:30;36.55;;;13.18;;
38224;SDS011;24025;48.138;11.428;2022-12-18T17:25:00;30.27;;;12.75;;
38224;SDS011;24025;48.138;11.428;2022-12-18T17:27:30;32.78;;;12.73;;
38224;SDS011;24025;48.138;11.428;2022-12-18T17:30:01;34.25;;;12.85;;
38224;SDS011;24025;48.138;11.428;2022-12-18T17:32:32;39.92;;;13.70;;
38224;SDS011;24025;48.138;11.428;2022-12-18T17:35:03;39.15;;;14.02;;
38224;SDS011;24025;48.138;11.428;2022-12-18T17:37:34;38.72;;;14.02;;
38224;SDS011;24025;48.138;11.428;2022-12-18T17:40:04;36.40;;;13.50;;
38224;SDS011;24025;48.138;11.428;2022-12-18T17:42:35;32.92;;;13.52;;
38224;SDS011;24025;48.138;11.428;2022-12-18T17:45:06;37.03;;;14.82;;
38224;SDS011;24025;48.138;11.428;2022-12-18T17:47:37;32.03;;;13.07;;
38224;SDS011;24025;48.138;11.428;2022-12-18T17:50:07;32.33;;;13.45;;
38224;SDS011;24025;48.138;11.428;2022-12-18T17:52:38;30.05;;;13.63;;
38224;SDS011;24025;48.138;11.428;2022-12-18T17:55:09;44.95;;;14.80;;
38224;SDS011;24025;48.138;11.428;2022-12-18T17:57:39;36.05;;;13.60;;
38224;SDS011;24025;48.138;11.428;2022-12-18T18:00:09;33.30;;;13.05;;
38224;SDS011;24025;48.138;11.428;2022-12-18T18:02:40;34.60;;;15.02;;
38224;SDS011;24025;48.138;11.428;2022-12-18T18:05:12;35.25;;;13.60;;
38224;SDS011;24025;48.138;11.428;2022-12-18T18:07:43;31.08;;;13.35;;
38224;SDS011;24025;48.138;11.428;2022-12-18T18:10:14;34.08;;;13.38;;
38224;SDS011;24025;48.138;11.428;2022-12-18T18:12:44;33.10;;;13.82;;
38224;SDS011;24025;48.138;11.428;2022-12-18T18:15:33;37.10;;;15.07;;
38224;SDS011;24025;48.138;11.428;2022-12-18T18:18:03;29.00;;;13.73;;
38224;SDS011;24025;48.138;11.428;2022-12-18T18:20:38;32.95;;;13.18;;
38224;SDS011;24025;48.138;11.428;2022-12-18T18:23:09;33.88;;;13.00;;
38224;SDS011;24025;48.138;11.428;2022-12-18T18:25:40;36.28;;;13.93;;
38224;SDS011;24025;48.138;11.428;2022-12-18T18:28:10;33.88;;;14.18;;
38224;SDS011;24025;48.138;11.428;2022-12-18T18:30:41;40.92;;;16.75;;
38224;SDS011;24025;48.138;11.428;2022-12-18T18:33:12;40.20;;;14.93;;
38224;SDS011;24025;48.138;11.428;2022-12-18T18:35:42;34.40;;;13.45;;
38224;SDS011;24025;48.138;11.428;2022-12-18T18:38:12;45.40;;;16.15;;
38224;SDS011;24025;48.138;11.428;2022-12-18T18:40:43;39.10;;;14.98;;
38224;SDS011;24025;48.138;11.428;2022-12-18T18:43:13;46.50;;;16.13;;
38224;SDS011;24025;48.138;11.428;2022-12-18T18:45:47;45.85;;;17.65;;
38224;SDS011;24025;48.138;11.428;2022-12-18T18:48:17;37.63;;;15.48;;
38224;SDS011;24025;48.138;11.428;2022-12-18T18:50:54;39.75;;;15.48;;
38224;SDS011;24025;48.138;11.428;2022-12-18T18:53:28;43.28;;;16.85;;
38224;SDS011;24025;48.138;11.428;2022-12-18T18:55:59;45.75;;;16.08;;
38224;SDS011;24025;48.138;11.428;2022-12-18T18:58:29;39.15;;;14.77;;
38224;SDS011;24025;48.138;11.428;2022-12-18T19:01:01;37.75;;;15.00;;
38224;SDS011;24025;48.138;11.428;2022-12-18T19:03:41;39.90;;;14.20;;
38224;SDS011;24025;48.138;11.428;2022-12-18T19:06:16;30.30;;;14.00;;
38224;SDS011;24025;48.138;11.428;2022-12-18T19:08:49;44.35;;;16.98;;
38224;SDS011;24025;48.138;11.428;2022-12-18T19:11:21;36.35;;;14.05;;
38224;SDS011;24025;48.138;11.428;2022-12-18T19:14:12;37.85;;;14.40;;
38224;SDS011;24025;48.138;11.428;2022-12-18T19:19:14;34.47;;;13.13;;
38224;SDS011;24025;48.138;11.428;2022-12-18T19:21:49;38.67;;;13.93;;
38224;SDS011;24025;48.138;11.428;2022-12-18T19:24:19;36.58;;;14.48;;
38224;SDS011;24025;48.138;11.428;2022-12-18T19:26:50;33.17;;;13.43;;
38224;SDS011;24025;48.138;11.428;2022-12-18T19:29:21;38.22;;;14.57;;
38224;SDS011;24025;48.138;11.428;2022-12-18T19:31:51;34.67;;;14.10;;
38224;SDS011;24025;48.138;11.428;2022-12-18T19:34:22;41.25;;;14.63;;
38224;SDS011;24025;48.138;11.428;2022-12-18T19:36:52;36.22;;;14.32;;
38224;SDS011;24025;48.138;11.428;2022-12-18T19:39:22;31.98;;;14.13;;
38224;SDS011;24025;48.138;11.428;2022-12-18T19:41:53;42.83;;;15.50;;
38224;SDS011;24025;48.138;11.428;2022-12-18T19:44:23;43.28;;;16.13;;
38224;SDS011;24025;48.138;11.428;2022-12-18T19:46:54;33.63;;;13.60;;
38224;SDS011;24025;48.138;11.428;2022-12-18T19:49:24;38.13;;;13.60;;
38224;SDS011;24025;48.138;11.428;2022-12-18T19:51:54;37.20;;;14.30;;
38224;SDS011;24025;48.138;11.428;2022-12-18T19:54:25;41.38;;;13.75;;
38224;SDS011;24025;48.138;11.428;2022-12-18T19:56:55;34.85;;;14.07;;
38224;SDS011;24025;48.138;11.428;2022-12-18T19:59:26;37.58;;;13.73;;
38224;SDS011;24025;48.138;11.428;2022-12-18T20:01:56;37.47;;;14.32;;
38224;SDS011;24025;48.138;11.428;2022-12-18T20:04:26;37.50;;;13.65;;
38224;SDS011;24025;48.138;11.428;2022-12-18T20:06:57;40.45;;;14.00;;
38224;SDS011;24025;48.138;11.428;2022-12-18T20:09:27;36.60;;;14.43;;
38224;SDS011;24025;48.138;11.428;2022-12-18T20:11:58;40.78;;;15.10;;
38224;SDS011;24025;48.138;11.428;2022-12-18T20:14:28;38.53;;;14.38;;
38224;SDS011;24025;48.138;11.428;2022-12-18T20:16:58;41.25;;;15.20;;
38224;SDS011;24025;48.138;11.428;2022-12-18T20:19:29;35.10;;;13.90;;
38224;SDS011;24025;48.138;11.428;2022-12-18T20:22:00;40.00;;;15.90;;
38224;SDS011;24025;48.138;11.428;2022-12-18T20:24:30;39.58;;;15.93;;
38224;SDS011;24025;48.138;11.428;2022-12-18T20:27:01;40.13;;;16.08;;
38224;SDS011;24025;48.138;11.428;2022-12-18T20:29:31;44.50;;;16.23;;
38224;SDS011;24025;48.138;11.428;2022-12-18T20:32:02;40.03;;;14.70;;
38224;SDS011;24025;48.138;11.428;2022-12-18T20:34:32;39.35;;;13.52;;
38224;SDS011;24025;48.138;11.428;2022-12-18T20:37:03;32.85;;;14.13;;
38224;SDS011;24025;48.138;11.428;2022-12-18T20:39:33;45.08;;;15.38;;
38224;SDS011;24025;48.138;11.428;2022-12-18T20:42:04;43.75;;;16.00;;
38224;SDS011;24025;48.138;11.428;2022-12-18T20:44:34;41.05;;;17.05;;
38224;SDS011;24025;48.138;11.428;2022-12-18T20:47:05;45.78;;;16.15;;
38224;SDS011;24025;48.138;11.428;2022-12-18T20:49:35;45.85;;;16.88;;
38224;SDS011;24025;48.138;11.428;2022-12-18T20:52:06;41.90;;;16.67;;
38224;SDS011;24025;48.138;11.428;2022-12-18T20:54:36;40.28;;;17.33;;
38224;SDS011;24025;48.138;11.428;2022-12-18T20:57:06;44.53;;;17.67;;
38224;SDS011;24025;48.138;11.428;2022-12-18T20:59:37;55.25;;;18.15;;
38224;SDS011;24025;48.138;11.428;2022-12-18T21:02:09;52.83;;;17.88;;
38224;SDS011;24025;48.138;11.428;2022-12-18T21:04:41;53.25;;;18.58;;
38224;SDS011;24025;48.138;11.428;2022-12-18T21:07:11;45.33;;;16.65;;
38224;SDS011;24025;48.138;11.428;2022-12-18T21:09:42;41.40;;;16.25;;
38224;SDS011;24025;48.138;11.428;2022-12-18T21:12:12;55.80;;;19.30;;
38224;SDS011;24025;48.138;11.428;2022-12-18T21:15:03;47.20;;;17.50;;
38224;SDS011;24025;48.138;11.428;2022-12-18T21:17:34;51.47;;;17.73;;
38224;SDS011;24025;48.138;11.428;2022-12-18T21:20:05;45.88;;;18.55;;
38224;SDS011;24025;48.138;11.428;2022-12-18T21:22:36;43.45;;;17.33;;
38224;SDS011;24025;48.138;11.428;2022-12-18T21:25:06;48.45;;;16.80;;
38224;SDS011;24025;48.138;11.428;2022-12-18T21:27:37;47.05;;;16.92;;
38224;SDS011;24025;48.138;11.428;2022-12-18T21:30:07;48.28;;;16.63;;
38224;SDS011;24025;48.138;11.428;2022-12-18T21:32:38;42.53;;;16.48;;
38224;SDS011;24025;48.138;11.428;2022-12-18T21:35:08;43.03;;;16.73;;
38224;SDS011;24025;48.138;11.428;2022-12-18T21:37:39;52.30;;;17.60;;
38224;SDS011;24025;48.138;11.428;2022-12-18T21:40:09;48.67;;;18.40;;
38224;SDS011;24025;48.138;11.428;2022-12-18T21:42:40;46.70;;;17.10;;
38224;SDS011;24025;48.138;11.428;2022-12-18T21:45:29;47.03;;;17.88;;
38224;SDS011;24025;48.138;11.428;2022-12-18T21:48:00;53.50;;;18.75;;
38224;SDS011;24025;48.138;11.428;2022-12-18T21:50:33;45.58;;;16.70;;
38224;SDS011;24025;48.138;11.428;2022-12-18T21:53:03;43.38;;;16.08;;
38224;SDS011;24025;48.138;11.428;2022-12-18T21:55:34;44.67;;;16.40;;
38224;SDS011;24025;48.138;11.428;2022-12-18T21:58:04;41.97;;;16.17;;
38224;SDS011;24025;48.138;11.428;2022-12-18T22:00:34;44.78;;;16.58;;
38224;SDS011;24025;48.138;11.428;2022-12-18T22:03:05;42.63;;;17.35;;
38224;SDS011;24025;48.138;11.428;2022-12-18T22:05:35;47.28;;;16.83;;
38224;SDS011;24025;48.138;11.428;2022-12-18T22:08:06;52.03;;;17.50;;
38224;SDS011;24025;48.138;11.428;2022-12-18T22:10:36;49.00;;;17.48;;
38224;SDS011;24025;48.138;11.428;2022-12-18T22:13:07;38.28;;;15.57;;
38224;SDS011;24025;48.138;11.428;2022-12-18T22:15:37;50.15;;;17.15;;
38224;SDS011;24025;48.138;11.428;2022-12-18T22:18:11;49.42;;;17.88;;
38224;SDS011;24025;48.138;11.428;2022-12-18T22:20:41;48.60;;;18.27;;
38224;SDS011;24025;48.138;11.428;2022-12-18T22:23:12;48.30;;;17.23;;
38224;SDS011;24025;48.138;11.428;2022-12-18T22:25:43;46.25;;;17.98;;
38224;SDS011;24025;48.138;11.428;2022-12-18T22:28:13;49.83;;;19.77;;
38224;SDS011;24025;48.138;11.428;2022-12-18T22:31:02;40.55;;;16.63;;
38224;SDS011;24025;48.138;11.428;2022-12-18T22:33:32;50.75;;;19.52;;
38224;SDS011;24025;48.138;11.428;2022-12-18T22:36:04;49.10;;;17.23;;
38224;SDS011;24025;48.138;11.428;2022-12-18T22:38:35;43.03;;;17.05;;
38224;SDS011;24025;48.138;11.428;2022-12-18T22:41:06;43.80;;;16.58;;
38224;SDS011;24025;48.138;11.428;2022-12-18T22:43:36;53.88;;;17.45;;
38224;SDS011;24025;48.138;11.428;2022-12-18T22:46:08;50.05;;;16.73;;
38224;SDS011;24025;48.138;11.428;2022-12-18T22:48:43;46.53;;;16.90;;
38224;SDS011;24025;48.138;11.428;2022-12-18T22:51:14;48.03;;;17.40;;
38224;SDS011;24025;48.138;11.428;2022-12-18T22:53:47;43.00;;;17.80;;
38224;SDS011;24025;48.138;11.428;2022-12-18T22:56:17;50.15;;;17.45;;
38224;SDS011;24025;48.138;11.428;2022-12-18T22:58:48;41.30;;;16.00;;
38224;SDS011;24025;48.138;11.428;2022-12-18T23:01:22;45.00;;;17.85;;
38224;SDS011;24025;48.138;11.428;2022-12-18T23:03:54;47.13;;;17.00;;
38224;SDS011;24025;48.138;11.428;2022-12-18T23:06:25;42.92;;;15.45;;
38224;SDS011;24025;48.138;11.428;2022-12-18T23:08:56;45.28;;;15.77;;
38224;SDS011;24025;48.138;11.428;2022-12-18T23:11:27;47.90;;;17.02;;
38224;SDS011;24025;48.138;11.428;2022-12-18T23:13:57;40.53;;;15.60;;
38224;SDS011;24025;48.138;11.428;2022-12-18T23:16:28;42.40;;;15.73;;
38224;SDS011;24025;48.138;11.428;2022-12-18T23:18:58;37.65;;;15.18;;
38224;SDS011;24025;48.138;11.428;2022-12-18T23:21:29;48.65;;;15.60;;
38224;SDS011;24025;48.138;11.428;2022-12-18T23:23:59;44.92;;;15.57;;
38224;SDS011;24025;48.138;11.428;2022-12-18T23:26:30;43.65;;;16.52;;
38224;SDS011;24025;48.138;11.428;2022-12-18T23:29:00;46.30;;;17.30;;
38224;SDS011;24025;48.138;11.428;2022-12-18T23:31:33;49.03;;;17.42;;
38224;SDS011;24025;48.138;11.428;2022-12-18T23:34:08;44.72;;;17.65;;
38224;SDS011;24025;48.138;11.428;2022-12-18T23:36:41;47.88;;;16.65;;
38224;SDS011;24025;48.138;11.428;2022-12-18T23:39:12;47.70;;;16.25;;
38224;SDS011;24025;48.138;11.428;2022-12-18T23:41:43;40.47;;;15.35;;
38224;SDS011;24025;48.138;11.428;2022-12-18T23:44:13;49.55;;;15.93;;
38224;SDS011;24025;48.138;11.428;2022-12-18T23:46:44;43.83;;;15.93;;
38224;SDS011;24025;48.138;11.428;2022-12-18T23:49:14;46.63;;;15.05;;
38224;SDS011;24025;48.138;11.428;2022-12-18T23:51:45;41.38;;;14.55;;
38224;SDS011;24025;48.138;11.428;2022-12-18T23:54:15;42.22;;;16.45;;
38224;SDS011;24025;48.138;11.428;2022-12-18T23:56:45;41.38;;;15.90;;
38224;SDS011;24025;48.138;11.428;2022-12-18T23:59:16;40.85;;;15.82;;
